createdAt,value
2023-04-14T00:02:08.544Z,64.17
2023-04-14T00:04:41.021Z,64.19
2023-04-14T00:07:13.970Z,64.17
2023-04-14T00:09:46.329Z,64.24
2023-04-14T00:12:18.556Z,64.40
2023-04-14T00:14:52.186Z,64.10
2023-04-14T00:17:24.298Z,64.25
2023-04-14T00:19:56.728Z,64.59
2023-04-14T00:22:28.808Z,64.78
2023-04-14T00:25:01.401Z,64.40
2023-04-14T00:27:33.523Z,64.42
2023-04-14T00:30:07.271Z,64.46
2023-04-14T00:32:39.827Z,64.72
2023-04-14T00:35:12.693Z,64.78
2023-04-14T00:37:44.924Z,64.55
2023-04-14T00:40:17.303Z,64.86
2023-04-14T00:42:50.789Z,64.66
2023-04-14T00:45:25.512Z,64.89
2023-04-14T00:47:59.445Z,65.08
2023-04-14T00:50:31.878Z,65.08
2023-04-14T00:53:05.034Z,64.87
2023-04-14T00:55:38.100Z,65.00
2023-04-14T00:58:12.241Z,64.58
2023-04-14T01:00:42.990Z,65.03
2023-04-14T01:03:15.433Z,65.46
2023-04-14T01:05:47.906Z,65.28
2023-04-14T01:08:21.262Z,65.08
2023-04-14T01:11:05.782Z,65.20
2023-04-14T01:13:46.591Z,65.31
2023-04-14T01:16:24.842Z,65.32
2023-04-14T01:19:03.476Z,65.40
2023-04-14T01:21:42.999Z,65.70
2023-04-14T01:24:53.078Z,66.08
2023-04-14T01:27:38.337Z,65.71
2023-04-14T01:30:33.624Z,65.95
2023-04-14T01:33:09.456Z,66.06
2023-04-14T01:35:47.285Z,66.51
2023-04-14T01:38:25.592Z,66.13
2023-04-14T01:41:03.841Z,66.45
2023-04-14T01:43:39.017Z,66.41
2023-04-14T01:46:15.729Z,66.27
2023-04-14T01:48:49.461Z,66.39
2023-04-14T01:51:23.300Z,66.70
2023-04-14T01:53:58.018Z,66.59
2023-04-14T01:56:31.944Z,66.63
2023-04-14T01:59:05.745Z,66.76
2023-04-14T02:01:39.297Z,66.89
2023-04-14T02:04:13.147Z,66.85
2023-04-14T02:06:46.422Z,66.74
2023-04-14T02:09:20.485Z,67.00
2023-04-14T02:11:55.035Z,67.03
2023-04-14T02:14:32.107Z,66.91
2023-04-14T02:17:05.465Z,67.18
2023-04-14T02:19:38.728Z,66.70
2023-04-14T02:22:11.377Z,67.09
2023-04-14T02:24:43.661Z,67.44
2023-04-14T02:27:24.837Z,67.33
2023-04-14T02:29:58.511Z,67.56
2023-04-14T02:32:32.902Z,67.33
2023-04-14T02:35:12.379Z,67.52
2023-04-14T02:37:53.972Z,67.75
2023-04-14T02:40:31.824Z,67.85
2023-04-14T02:43:10.993Z,68.11
2023-04-14T02:45:47.131Z,68.06
2023-04-14T02:48:22.839Z,67.99
2023-04-14T02:50:57.350Z,68.29
2023-04-14T02:53:31.422Z,68.32
2023-04-14T02:56:11.395Z,68.05
2023-04-14T02:58:46.798Z,68.17
2023-04-14T03:01:20.713Z,68.23
2023-04-14T03:03:57.901Z,68.34
2023-04-14T03:06:33.413Z,68.39
2023-04-14T03:09:07.660Z,68.54
2023-04-14T03:11:40.074Z,68.51
2023-04-14T03:14:14.015Z,68.89
2023-04-14T03:16:47.395Z,68.45
2023-04-14T03:19:22.549Z,68.43
2023-04-14T03:21:56.187Z,69.07
2023-04-14T03:24:32.692Z,68.64
2023-04-14T03:27:10.255Z,68.82
2023-04-14T03:29:45.898Z,68.79
2023-04-14T03:32:21.173Z,68.68
2023-04-14T03:34:58.198Z,68.97
2023-04-14T03:37:36.255Z,68.76
2023-04-14T03:40:11.456Z,69.47
2023-04-14T03:42:46.431Z,68.84
2023-04-14T03:45:24.155Z,68.98
2023-04-14T03:48:04.118Z,69.10
2023-04-14T03:50:43.085Z,69.42
2023-04-14T03:53:19.120Z,68.96
2023-04-14T03:55:54.087Z,69.06
2023-04-14T03:58:29.832Z,69.26
2023-04-14T04:01:04.844Z,69.46
2023-04-14T04:03:38.727Z,69.42
2023-04-14T04:06:11.825Z,69.44
2023-04-14T04:08:46.040Z,69.45
2023-04-14T04:11:20.499Z,69.46
2023-04-14T04:13:56.211Z,69.52
2023-04-14T04:16:30.680Z,69.46
2023-04-14T04:19:07.507Z,69.35
2023-04-14T04:21:43.598Z,69.75
2023-04-14T04:24:16.732Z,69.59
2023-04-14T04:26:49.720Z,69.50
2023-04-14T04:29:22.762Z,69.82
2023-04-14T04:31:57.137Z,69.75
2023-04-14T04:34:32.154Z,69.68
2023-04-14T04:37:05.420Z,69.55
2023-04-14T04:39:37.822Z,69.74
2023-04-14T04:42:10.128Z,69.61
2023-04-14T04:44:42.976Z,69.70
2023-04-14T04:47:16.207Z,69.68
2023-04-14T04:49:47.810Z,69.66
2023-04-14T04:52:19.951Z,69.57
2023-04-14T04:54:52.782Z,69.58
2023-04-14T04:57:25.243Z,69.42
2023-04-14T04:59:57.670Z,69.62
2023-04-14T05:02:30.528Z,69.62
2023-04-14T05:05:02.833Z,69.46
2023-04-14T05:07:34.962Z,69.68
2023-04-14T05:10:08.816Z,69.56
2023-04-14T05:12:41.217Z,69.80
2023-04-14T05:15:14.173Z,69.86
2023-04-14T05:17:46.611Z,70.19
2023-04-14T05:20:18.910Z,69.88
2023-04-14T05:22:51.192Z,70.14
2023-04-14T05:25:23.828Z,70.22
2023-04-14T05:27:55.993Z,70.31
2023-04-14T05:30:28.459Z,70.54
2023-04-14T05:33:00.638Z,70.45
2023-04-14T05:35:32.874Z,70.36
2023-04-14T05:38:05.440Z,70.61
2023-04-14T05:40:37.590Z,70.79
2023-04-14T05:43:10.229Z,70.51
2023-04-14T05:45:42.604Z,70.97
2023-04-14T05:48:17.159Z,71.28
2023-04-14T05:50:49.441Z,71.20
2023-04-14T05:53:21.737Z,71.13
2023-04-14T05:55:57.345Z,70.81
2023-04-14T05:58:29.519Z,70.98
2023-04-14T06:01:04.160Z,71.10
2023-04-14T06:03:40.187Z,71.10
2023-04-14T06:06:12.912Z,71.19
2023-04-14T06:08:45.439Z,71.42
2023-04-14T06:11:17.837Z,70.95
2023-04-14T06:13:50.464Z,70.83
2023-04-14T06:16:24.731Z,70.69
2023-04-14T06:18:55.334Z,70.57
2023-04-14T06:21:27.541Z,70.73
2023-04-14T06:23:59.664Z,70.12
2023-04-14T06:26:32.689Z,69.68
2023-04-14T06:29:07.743Z,69.46
2023-04-14T06:31:40.122Z,68.24
2023-04-14T06:34:12.318Z,68.36
2023-04-14T06:36:44.752Z,66.83
2023-04-14T06:39:17.807Z,66.42
2023-04-14T06:41:50.122Z,66.09
2023-04-14T06:44:23.295Z,65.32
2023-04-14T06:46:58.000Z,65.12
2023-04-14T06:49:30.739Z,64.25
2023-04-14T06:52:03.049Z,63.04
2023-04-14T06:54:36.494Z,62.63
2023-04-14T06:57:08.710Z,61.15
2023-04-14T06:59:41.070Z,60.46
2023-04-14T07:02:13.113Z,59.77
2023-04-14T07:04:45.531Z,58.56
2023-04-14T07:07:18.445Z,58.17
2023-04-14T07:09:50.687Z,56.59
2023-04-14T07:12:23.571Z,56.58
2023-04-14T07:14:56.391Z,56.31
2023-04-14T07:17:28.904Z,54.78
2023-04-14T07:20:02.113Z,55.53
2023-04-14T07:22:34.642Z,53.99
2023-04-14T07:25:07.512Z,54.74
2023-04-14T07:27:43.227Z,55.04
2023-04-14T07:30:22.762Z,55.38
2023-04-14T07:32:56.180Z,56.25
2023-04-14T07:35:29.181Z,57.11
2023-04-14T07:38:01.421Z,57.41
2023-04-14T07:40:37.178Z,57.24
2023-04-14T07:43:10.705Z,57.70
2023-04-14T07:45:43.562Z,57.56
2023-04-14T07:48:15.808Z,56.21
2023-04-14T07:50:48.499Z,55.58
2023-04-14T07:53:21.991Z,55.81
2023-04-14T07:55:54.313Z,54.98
2023-04-14T07:58:29.526Z,52.28
2023-04-14T08:01:02.567Z,53.00
2023-04-14T08:03:36.647Z,53.02
2023-04-14T08:06:10.171Z,51.66
2023-04-14T08:08:43.066Z,51.35
2023-04-14T08:11:15.227Z,50.84
2023-04-14T08:13:49.991Z,50.46
2023-04-14T08:16:22.937Z,48.67
2023-04-14T08:18:57.979Z,49.15
2023-04-14T08:21:30.945Z,49.18
2023-04-14T08:24:03.109Z,49.49
2023-04-14T08:26:35.775Z,48.93
2023-04-14T08:29:07.993Z,48.69
2023-04-14T08:31:40.267Z,49.60
2023-04-14T08:34:13.821Z,49.66
2023-04-14T08:36:53.839Z,49.87
2023-04-14T08:39:26.401Z,50.13
2023-04-14T08:41:59.740Z,49.50
2023-04-14T08:44:32.953Z,50.03
2023-04-14T08:47:06.233Z,50.25
2023-04-14T08:49:46.128Z,50.12
2023-04-14T08:52:23.297Z,48.81
2023-04-14T08:54:58.205Z,49.51
2023-04-14T08:57:31.316Z,49.16
2023-04-14T09:00:05.159Z,49.44
2023-04-14T09:02:40.412Z,49.80
2023-04-14T09:05:14.168Z,49.18
2023-04-14T09:07:47.300Z,49.40
2023-04-14T09:10:20.080Z,49.75
2023-04-14T09:12:53.656Z,49.57
2023-04-14T09:15:27.399Z,49.84
2023-04-14T09:18:00.368Z,50.02
2023-04-14T09:20:34.891Z,49.83
2023-04-14T09:23:11.116Z,48.57
2023-04-14T09:25:44.607Z,48.31
2023-04-14T09:28:16.844Z,48.74
2023-04-14T09:30:49.371Z,49.04
2023-04-14T09:33:26.593Z,49.24
2023-04-14T09:35:58.802Z,49.64
2023-04-14T09:38:38.968Z,49.21
2023-04-14T09:41:16.635Z,49.03
2023-04-14T09:43:48.741Z,48.57
2023-04-14T09:46:21.870Z,49.20
2023-04-14T09:48:56.107Z,49.49
2023-04-14T09:51:33.316Z,48.88
2023-04-14T09:54:06.753Z,48.25
2023-04-14T09:56:39.395Z,48.33
2023-04-14T09:59:11.721Z,48.88
2023-04-14T10:01:48.459Z,49.20
2023-04-14T10:04:26.756Z,48.71
2023-04-14T10:07:02.352Z,48.54
2023-04-14T10:09:38.872Z,48.28
2023-04-14T10:12:13.519Z,47.55
2023-04-14T10:14:46.398Z,47.31
2023-04-14T10:17:20.113Z,48.08
2023-04-14T10:19:52.843Z,48.65
2023-04-14T10:22:29.374Z,48.57
2023-04-14T10:25:01.753Z,48.39
2023-04-14T10:27:35.856Z,48.16
2023-04-14T10:30:10.566Z,48.17
2023-04-14T10:32:44.307Z,47.81
2023-04-14T10:35:19.565Z,48.14
2023-04-14T10:37:55.345Z,47.98
2023-04-14T10:40:27.590Z,48.17
2023-04-14T10:42:59.748Z,48.84
2023-04-14T10:45:31.916Z,48.61
2023-04-14T10:48:06.404Z,48.51
2023-04-14T10:50:49.163Z,48.40
2023-04-14T10:53:21.365Z,47.70
2023-04-14T10:55:56.019Z,47.52
2023-04-14T10:58:30.922Z,48.01
2023-04-14T11:01:22.079Z,47.75
2023-04-14T11:03:56.517Z,47.46
2023-04-14T11:06:53.536Z,47.59
2023-04-14T11:09:37.665Z,47.39
2023-04-14T11:12:28.054Z,48.14
2023-04-14T11:15:05.115Z,48.01
2023-04-14T11:17:40.720Z,47.98
2023-04-14T11:20:23.986Z,48.20
2023-04-14T11:22:59.028Z,47.99
2023-04-14T11:25:31.593Z,48.02
2023-04-14T11:28:06.244Z,48.02
2023-04-14T11:30:41.959Z,47.14
2023-04-14T11:33:16.227Z,47.61
2023-04-14T11:35:48.595Z,47.74
2023-04-14T11:38:21.930Z,48.09
2023-04-14T11:40:56.718Z,48.48
2023-04-14T11:43:31.947Z,48.33
2023-04-14T11:46:09.026Z,48.28
2023-04-14T11:48:41.665Z,47.90
2023-04-14T11:51:13.865Z,47.98
2023-04-14T11:53:46.169Z,47.84
2023-04-14T11:56:20.057Z,48.00
2023-04-14T11:58:53.101Z,47.47
2023-04-14T12:01:27.578Z,47.03
2023-04-14T12:04:00.425Z,47.20
2023-04-14T12:06:39.604Z,46.92
2023-04-14T12:09:12.697Z,47.26
2023-04-14T12:11:54.380Z,47.56
2023-04-14T12:14:29.658Z,47.64
2023-04-14T12:17:02.277Z,47.56
2023-04-14T12:19:34.767Z,47.84
2023-04-14T12:22:08.281Z,47.87
2023-04-14T12:24:42.121Z,48.28
2023-04-14T12:27:15.473Z,48.61
2023-04-14T12:29:50.294Z,48.69
2023-04-14T12:32:23.577Z,48.20
2023-04-14T12:35:01.463Z,48.31
2023-04-14T12:37:34.672Z,48.24
2023-04-14T12:40:09.711Z,48.68
2023-04-14T12:42:51.843Z,48.29
2023-04-14T12:45:24.435Z,48.08
2023-04-14T12:47:58.164Z,48.10
2023-04-14T12:50:33.310Z,48.41
2023-04-14T12:53:23.728Z,48.47
2023-04-14T12:56:09.405Z,48.86
2023-04-14T12:58:43.201Z,48.59
2023-04-14T13:01:18.655Z,48.50
2023-04-14T13:03:52.922Z,48.46
2023-04-14T13:06:28.090Z,48.66
2023-04-14T13:09:00.949Z,48.44
2023-04-14T13:11:33.620Z,48.46
2023-04-14T13:14:06.038Z,48.61
2023-04-14T13:16:41.223Z,48.69
2023-04-14T13:19:13.636Z,48.60
2023-04-14T13:21:46.230Z,48.28
2023-04-14T13:24:18.674Z,48.13
2023-04-14T13:26:52.163Z,48.20
2023-04-14T13:29:27.080Z,48.40
2023-04-14T13:32:00.251Z,48.55
2023-04-14T13:34:32.730Z,48.61
2023-04-14T13:37:05.029Z,48.43
2023-04-14T13:39:37.893Z,48.71
2023-04-14T13:42:10.104Z,48.80
2023-04-14T13:44:42.672Z,48.72
2023-04-14T13:47:14.783Z,48.79
2023-04-14T13:49:47.355Z,49.06
2023-04-14T13:52:19.582Z,48.67
2023-04-14T13:54:52.286Z,48.70
2023-04-14T13:57:27.667Z,48.66
2023-04-14T14:00:00.615Z,48.83
2023-04-14T14:02:34.148Z,48.91
2023-04-14T14:05:05.526Z,48.39
2023-04-14T14:07:38.596Z,48.47
2023-04-14T14:10:12.109Z,48.66
2023-04-14T14:12:44.557Z,48.83
2023-04-14T14:15:16.901Z,48.82
2023-04-14T14:17:49.167Z,48.86
2023-04-14T14:20:21.516Z,49.10
2023-04-14T14:22:54.055Z,49.47
2023-04-14T14:25:26.966Z,49.18
2023-04-14T14:27:59.619Z,49.19
2023-04-14T14:30:32.310Z,49.26
2023-04-14T14:33:04.721Z,49.54
2023-04-14T14:35:37.263Z,49.13
2023-04-14T14:38:09.862Z,49.37
2023-04-14T14:40:42.347Z,49.25
2023-04-14T14:43:14.671Z,49.71
2023-04-14T14:45:47.397Z,49.26
2023-04-14T14:48:19.700Z,49.10
2023-04-14T14:50:52.033Z,49.45
2023-04-14T14:53:27.602Z,49.42
2023-04-14T14:55:59.764Z,49.28
2023-04-14T14:58:32.041Z,49.49
2023-04-14T15:01:06.140Z,49.56
2023-04-14T15:03:39.547Z,49.33
2023-04-14T15:06:12.366Z,49.26
2023-04-14T15:08:45.046Z,49.51
2023-04-14T15:11:17.597Z,49.66
2023-04-14T15:13:49.824Z,49.27
2023-04-14T15:16:22.057Z,49.22
2023-04-14T15:18:55.750Z,49.58
2023-04-14T15:21:28.411Z,49.89
2023-04-14T15:24:03.493Z,49.68
2023-04-14T15:26:36.465Z,49.31
2023-04-14T15:29:09.182Z,49.22
2023-04-14T15:31:41.472Z,49.61
2023-04-14T15:34:13.607Z,49.49
2023-04-14T15:36:46.009Z,49.42
2023-04-14T15:39:18.479Z,49.46
2023-04-14T15:41:51.497Z,49.40
2023-04-14T15:44:25.065Z,49.89
2023-04-14T15:46:57.626Z,49.55
2023-04-14T15:49:29.904Z,50.31
2023-04-14T15:52:02.015Z,49.80
2023-04-14T15:54:34.368Z,50.64
2023-04-14T15:57:07.230Z,50.79
2023-04-14T15:59:39.801Z,50.48
2023-04-14T16:02:12.570Z,50.61
2023-04-14T16:04:44.970Z,51.08
2023-04-14T16:07:17.278Z,51.24
2023-04-14T16:09:49.651Z,51.72
2023-04-14T16:12:21.981Z,52.04
2023-04-14T16:14:55.379Z,51.35
2023-04-14T16:17:30.393Z,52.27
2023-04-14T16:20:03.195Z,52.20
2023-04-14T16:22:35.614Z,51.98
2023-04-14T16:25:18.011Z,52.38
2023-04-14T16:27:51.929Z,52.83
2023-04-14T16:30:25.091Z,53.12
2023-04-14T16:32:57.514Z,52.95
2023-04-14T16:35:30.426Z,52.45
2023-04-14T16:38:02.666Z,53.42
2023-04-14T16:40:35.425Z,53.38
2023-04-14T16:43:09.961Z,53.03
2023-04-14T16:45:42.244Z,53.89
2023-04-14T16:48:14.735Z,53.97
2023-04-14T16:50:48.974Z,53.35
2023-04-14T16:53:22.157Z,53.88
2023-04-14T16:55:55.039Z,54.04
2023-04-14T16:58:29.866Z,53.33
2023-04-14T17:01:02.989Z,54.57
2023-04-14T17:03:35.685Z,53.87
2023-04-14T17:06:08.913Z,54.28
2023-04-14T17:08:41.634Z,54.94
2023-04-14T17:11:15.223Z,54.34
2023-04-14T17:13:47.868Z,54.45
2023-04-14T17:16:20.308Z,55.07
2023-04-14T17:18:53.522Z,55.31
2023-04-14T17:21:26.854Z,55.45
2023-04-14T17:23:59.274Z,54.90
2023-04-14T17:26:31.938Z,55.06
2023-04-14T17:29:04.498Z,56.21
2023-04-14T17:31:39.949Z,55.46
2023-04-14T17:34:13.015Z,56.15
2023-04-14T17:36:45.606Z,56.67
2023-04-14T17:39:22.027Z,56.44
2023-04-14T17:41:56.952Z,56.78
2023-04-14T17:44:35.337Z,55.98
2023-04-14T17:47:15.438Z,56.61
2023-04-14T17:49:48.934Z,56.99
2023-04-14T17:52:25.360Z,56.42
2023-04-14T17:54:59.780Z,56.58
2023-04-14T17:57:32.144Z,56.49
2023-04-14T18:00:05.942Z,57.52
2023-04-14T18:02:45.514Z,57.08
2023-04-14T18:05:18.367Z,57.06
2023-04-14T18:07:51.303Z,57.03
2023-04-14T18:10:25.318Z,57.88
2023-04-14T18:12:57.721Z,56.93
2023-04-14T18:15:30.480Z,57.68
2023-04-14T18:18:05.664Z,57.57
2023-04-14T18:20:38.288Z,58.31
2023-04-14T18:23:10.923Z,58.12
2023-04-14T18:28:19.263Z,58.00
2023-04-14T18:30:58.594Z,58.15
2023-04-14T18:33:31.604Z,58.37
2023-04-14T18:36:05.412Z,57.72
2023-04-14T18:38:36.464Z,58.67
2023-04-14T18:41:10.659Z,58.29
2023-04-14T18:43:41.442Z,58.82
2023-04-14T18:46:16.199Z,59.07
2023-04-14T18:48:49.506Z,59.07
2023-04-14T18:51:22.851Z,59.22
2023-04-14T18:53:54.675Z,58.27
2023-04-14T18:56:32.805Z,58.98
2023-04-14T18:59:07.782Z,59.26
2023-04-14T19:01:40.638Z,59.07
2023-04-14T19:04:13.982Z,59.47
2023-04-14T19:06:49.118Z,58.76
2023-04-14T19:09:21.351Z,59.06
2023-04-14T19:11:53.887Z,59.00
2023-04-14T19:14:26.353Z,59.54
2023-04-14T19:17:03.992Z,59.08
2023-04-14T19:19:37.318Z,60.04
2023-04-14T19:22:09.703Z,59.81
2023-04-14T19:24:42.308Z,59.53
2023-04-14T19:27:14.952Z,59.62
2023-04-14T19:29:47.165Z,59.40
2023-04-14T19:32:20.829Z,59.66
2023-04-14T19:34:53.114Z,60.05
2023-04-14T19:37:25.711Z,59.93
2023-04-14T19:39:58.715Z,59.41
2023-04-14T19:42:31.121Z,59.58
2023-04-14T19:45:03.459Z,60.03
2023-04-14T19:47:35.949Z,60.01
2023-04-14T19:50:09.011Z,59.75
2023-04-14T19:52:41.353Z,59.76
2023-04-14T19:55:14.579Z,60.04
2023-04-14T19:57:47.415Z,60.36
2023-04-14T20:00:22.020Z,60.38
2023-04-14T20:02:56.793Z,60.08
2023-04-14T20:05:29.342Z,60.63
2023-04-14T20:08:02.171Z,60.07
2023-04-14T20:10:34.441Z,60.23
2023-04-14T20:13:09.501Z,59.91
2023-04-14T20:15:41.940Z,60.22
2023-04-14T20:18:14.894Z,60.20
2023-04-14T20:20:48.830Z,60.21
2023-04-14T20:23:21.422Z,60.51
2023-04-14T20:25:55.954Z,60.98
2023-04-14T20:28:29.954Z,61.21
2023-04-14T20:31:03.536Z,61.34
2023-04-14T20:33:35.793Z,60.86
2023-04-14T20:36:10.009Z,61.44
2023-04-14T20:38:40.697Z,61.36
2023-04-14T20:41:12.915Z,61.23
2023-04-14T20:43:45.409Z,61.57
2023-04-14T20:46:17.582Z,61.28
2023-04-14T20:48:49.993Z,61.26
2023-04-14T20:51:22.790Z,61.24
2023-04-14T20:53:56.563Z,61.42
2023-04-14T20:56:31.040Z,61.65
2023-04-14T20:59:04.205Z,61.88
2023-04-14T21:01:37.779Z,61.82
2023-04-14T21:04:11.141Z,61.36
2023-04-14T21:06:43.917Z,61.12
2023-04-14T21:09:16.801Z,61.93
2023-04-14T21:11:48.959Z,61.52
2023-04-14T21:15:47.000Z,62.02
2023-04-14T21:17:35.115Z,62.07
2023-04-14T21:20:09.035Z,62.04
2023-04-14T21:22:41.595Z,62.02
2023-04-14T21:25:14.306Z,61.51
2023-04-14T21:27:46.689Z,62.28
2023-04-14T21:30:19.164Z,62.14
2023-04-14T21:32:51.439Z,62.27
2023-04-14T21:35:24.876Z,61.78
2023-04-14T21:37:57.563Z,62.30
2023-04-14T21:40:29.768Z,62.59
2023-04-14T21:43:02.385Z,61.86
2023-04-14T21:45:34.995Z,61.99
2023-04-14T21:48:09.926Z,62.16
2023-04-14T21:50:43.043Z,62.77
2023-04-14T21:53:15.289Z,62.55
2023-04-14T21:55:48.021Z,62.57
2023-04-14T21:58:40.437Z,62.30
2023-04-14T22:01:12.860Z,62.72
2023-04-14T22:03:45.247Z,62.38
2023-04-14T22:06:19.329Z,62.77
2023-04-14T22:08:51.647Z,62.50
2023-04-14T22:11:24.200Z,62.73
2023-04-14T22:13:56.874Z,63.39
2023-04-14T22:16:29.871Z,62.84
2023-04-14T22:19:02.310Z,62.95
2023-04-14T22:21:35.069Z,63.00
2023-04-14T22:24:08.725Z,63.39
2023-04-14T22:26:42.249Z,62.41
2023-04-14T22:29:14.546Z,62.81
2023-04-14T22:31:46.794Z,63.20
2023-04-14T22:34:19.044Z,63.39
2023-04-14T22:36:51.323Z,62.99
2023-04-14T22:39:23.720Z,63.20
2023-04-14T22:41:56.133Z,63.13
2023-04-14T22:44:28.420Z,62.91
2023-04-14T22:47:00.711Z,63.27
2023-04-14T22:49:32.864Z,62.99
2023-04-14T22:52:05.486Z,63.52
2023-04-14T22:54:37.714Z,63.72
2023-04-14T22:57:11.549Z,63.55
2023-04-14T22:59:43.802Z,63.50
2023-04-14T23:02:16.806Z,62.99
2023-04-14T23:04:49.277Z,63.13
2023-04-14T23:07:22.751Z,63.16
2023-04-14T23:09:57.674Z,63.63
2023-04-14T23:12:30.098Z,63.82
2023-04-14T23:15:02.347Z,63.16
2023-04-14T23:17:35.501Z,64.00
2023-04-14T23:20:10.164Z,63.72
2023-04-14T23:22:43.092Z,63.92
2023-04-14T23:25:15.910Z,63.74
2023-04-14T23:27:48.397Z,63.45
2023-04-14T23:30:21.611Z,63.50
2023-04-14T23:32:53.908Z,63.85
2023-04-14T23:35:26.472Z,63.94
2023-04-14T23:38:02.520Z,63.81
2023-04-14T23:40:36.405Z,64.09
2023-04-14T23:43:10.720Z,63.72
2023-04-14T23:45:42.915Z,64.29
2023-04-14T23:48:15.163Z,63.83
2023-04-14T23:51:00.690Z,64.27
2023-04-14T23:53:39.972Z,64.23
2023-04-14T23:56:12.351Z,63.77
2023-04-14T23:58:44.966Z,64.26
